»·PEaware :: N9229P KOSH-KOSH

N9229P :: KOSH-KOSH

FLIGHT INFORMATION

Flight Status: Arrived
Operator: Privately registered:
United States
More flights under this callsign
Pilot: James W. (24810)
Aircraft: PIPER PA-28R-201 ARROW
(P28R)
More flights by this aircraft type
Origin: KOSH Wittman Regl
United States
Destination: KOSH Wittman Regl
United States
More flights between these airports :: More routes between these airports
Route: null
File this flight plan on PilotEdge
Remarks:
Altitude:
(Current/Filed)
null
Speed:
(Current/Filed)
0kts
Departed: 24-Jul-20 03:14 PM
Arrived: 24-Jul-20 03:49 PM
Distance/Time
Traveled:
13nm/0:34
Distance/Time
To Go:
Arrived

Flight Plot

Page will automatically refresh every two minutes.

Flight plan parsing failed; only flown route is shown


Map Options




Map Legend


Flown Route
Filed Route
Departure Airport
Arrival Airport
Navaid (VOR, NDB)
Fix

Horizontal Profiles

Position Reports

Time Latitude Longitude Heading Altitude Ground
Speed
24-Jul-20 15:12 43.923537 -88.493210 151 1299ft 105kts
24-Jul-20 15:13 43.896848 -88.503195 206 1931ft 113kts
24-Jul-20 15:14 43.869563 -88.526273 220 2830ft 117kts
24-Jul-20 15:15 43.842806 -88.559132 221 3000ft 136kts
24-Jul-20 15:16 43.816449 -88.597103 226 3000ft 137kts
24-Jul-20 15:17 43.798183 -88.641909 262 2999ft 135kts
24-Jul-20 15:18 43.798269 -88.690530 275 2999ft 122kts
24-Jul-20 15:19 43.802094 -88.730785 279 2999ft 97kts
24-Jul-20 15:20 43.807363 -88.767561 281 2925ft 103kts
24-Jul-20 15:21 43.813717 -88.808161 281 2498ft 100kts
24-Jul-20 15:22 43.819883 -88.844840 284 2499ft 97kts
24-Jul-20 15:23 43.826632 -88.881189 284 2499ft 96kts
24-Jul-20 15:24 43.833504 -88.916443 285 2472ft 94kts
24-Jul-20 15:25 43.841798 -88.951029 291 2271ft 95kts
24-Jul-20 15:26 43.840933 -88.986579 245 2073ft 95kts
24-Jul-20 15:27 43.827939 -89.019146 238 1876ft 99kts
24-Jul-20 15:28 43.813385 -89.051118 236 1799ft 95kts
24-Jul-20 15:29 43.793887 -89.073549 190 1800ft 93kts
24-Jul-20 15:30 43.770251 -89.063520 118 1798ft 93kts
24-Jul-20 15:31 43.777115 -89.029790 64 1800ft 95kts
24-Jul-20 15:32 43.789364 -88.997371 62 1799ft 95kts
24-Jul-20 15:33 43.802047 -88.965218 61 1799ft 95kts
24-Jul-20 15:34 43.814240 -88.932777 63 1799ft 95kts
24-Jul-20 15:35 43.826190 -88.900387 62 1799ft 94kts
24-Jul-20 15:36 43.838401 -88.868116 62 1799ft 94kts
24-Jul-20 15:37 43.850511 -88.836058 62 1799ft 94kts
24-Jul-20 15:38 43.864446 -88.805670 53 1799ft 93kts
24-Jul-20 15:39 43.880288 -88.776969 52 1799ft 93kts
24-Jul-20 15:40 43.897327 -88.750008 46 1800ft 93kts
24-Jul-20 15:41 43.916811 -88.726043 38 1800ft 93kts
24-Jul-20 15:42 43.937146 -88.703664 39 1799ft 93kts
24-Jul-20 15:43 43.953629 -88.677196 85 1799ft 93kts
24-Jul-20 15:44 43.953048 -88.641317 91 1802ft 91kts
24-Jul-20 15:45 43.952251 -88.606447 91 1800ft 91kts
24-Jul-20 15:46 43.951810 -88.570875 90 1421ft 91kts
24-Jul-20 15:47 43.967273 -88.554577 1 829ft 69kts
24-Jul-20 15:48 43.978736 -88.554454 359 813ft 29kts
24-Jul-20 15:49 43.987329 -88.554330 0 813ft 23kts
24-Jul-20 15:50 43.985707 -88.557966 176 813ft 9kts
24-Jul-20 15:51 43.981677 -88.558009 180 813ft 25kts
24-Jul-20 15:52 43.974468 -88.558096 180 813ft 25kts
24-Jul-20 15:53 43.968205 -88.558185 180 813ft 14kts
24-Jul-20 15:54 43.967982 -88.556532 0 813ft 8kts
24-Jul-20 15:55 43.971882 -88.556443 359 827ft 79kts
24-Jul-20 15:56 43.973070 -88.527889 151 1299ft 133kts
24-Jul-20 15:57 43.939513 -88.502932 150 1300ft 138kts
24-Jul-20 15:58 43.905782 -88.477275 150 1300ft 138kts
24-Jul-20 15:59 43.871841 -88.452689 170 1297ft 138kts
24-Jul-20 16:00 43.838734 -88.469184 202 1983ft 125kts
24-Jul-20 16:01 43.806138 -88.488104 202 2302ft 142kts
24-Jul-20 16:02 43.773033 -88.498614 188 1798ft 107kts

Navigation Log

Ident Type
Flight plan parsing failed, navigation log unavailable